sensor_id;sensor_type;location;lat;lon;timestamp;P1;durP1;ratioP1;P2;durP2;ratioP2
2320;SDS011;15376;48.540;9.268;2022-08-19T00:01:16;39.97;;;35.87;;
2320;SDS011;15376;48.540;9.268;2022-08-19T00:03:42;41.30;;;37.13;;
2320;SDS011;15376;48.540;9.268;2022-08-19T00:06:07;40.73;;;36.63;;
2320;SDS011;15376;48.540;9.268;2022-08-19T00:08:34;36.70;;;32.77;;
2320;SDS011;15376;48.540;9.268;2022-08-19T00:11:00;43.07;;;38.57;;
2320;SDS011;15376;48.540;9.268;2022-08-19T00:13:25;43.00;;;38.07;;
2320;SDS011;15376;48.540;9.268;2022-08-19T00:15:53;42.03;;;37.73;;
2320;SDS011;15376;48.540;9.268;2022-08-19T00:18:19;43.17;;;38.67;;
2320;SDS011;15376;48.540;9.268;2022-08-19T00:20:45;37.50;;;33.50;;
2320;SDS011;15376;48.540;9.268;2022-08-19T00:23:10;42.03;;;37.63;;
2320;SDS011;15376;48.540;9.268;2022-08-19T00:25:35;36.23;;;32.73;;
2320;SDS011;15376;48.540;9.268;2022-08-19T00:28:01;34.73;;;31.27;;
2320;SDS011;15376;48.540;9.268;2022-08-19T00:30:27;36.63;;;33.03;;
2320;SDS011;15376;48.540;9.268;2022-08-19T00:32:53;37.13;;;33.23;;
2320;SDS011;15376;48.540;9.268;2022-08-19T00:35:20;38.27;;;34.23;;
2320;SDS011;15376;48.540;9.268;2022-08-19T00:37:47;37.77;;;33.73;;
2320;SDS011;15376;48.540;9.268;2022-08-19T00:40:13;37.30;;;33.50;;
2320;SDS011;15376;48.540;9.268;2022-08-19T00:42:39;39.93;;;35.60;;
2320;SDS011;15376;48.540;9.268;2022-08-19T00:45:10;38.83;;;34.90;;
2320;SDS011;15376;48.540;9.268;2022-08-19T00:47:38;39.13;;;35.23;;
2320;SDS011;15376;48.540;9.268;2022-08-19T00:50:03;38.00;;;34.20;;
2320;SDS011;15376;48.540;9.268;2022-08-19T00:52:32;39.07;;;34.90;;
2320;SDS011;15376;48.540;9.268;2022-08-19T00:55:00;40.17;;;35.90;;
2320;SDS011;15376;48.540;9.268;2022-08-19T00:57:32;38.07;;;34.23;;
2320;SDS011;15376;48.540;9.268;2022-08-19T01:00:03;37.10;;;33.17;;
2320;SDS011;15376;48.540;9.268;2022-08-19T01:02:32;34.13;;;30.47;;
2320;SDS011;15376;48.540;9.268;2022-08-19T01:04:58;36.70;;;32.63;;
2320;SDS011;15376;48.540;9.268;2022-08-19T01:07:26;40.63;;;35.30;;
2320;SDS011;15376;48.540;9.268;2022-08-19T01:09:51;39.53;;;35.03;;
2320;SDS011;15376;48.540;9.268;2022-08-19T01:12:17;40.33;;;36.10;;
2320;SDS011;15376;48.540;9.268;2022-08-19T01:14:43;37.33;;;33.17;;
2320;SDS011;15376;48.540;9.268;2022-08-19T01:17:10;40.90;;;35.07;;
2320;SDS011;15376;48.540;9.268;2022-08-19T01:19:37;42.47;;;36.47;;
2320;SDS011;15376;48.540;9.268;2022-08-19T01:22:11;39.93;;;34.77;;
2320;SDS011;15376;48.540;9.268;2022-08-19T01:25:03;42.30;;;37.50;;
2320;SDS011;15376;48.540;9.268;2022-08-19T01:27:38;40.90;;;36.40;;
2320;SDS011;15376;48.540;9.268;2022-08-19T01:30:06;44.00;;;37.80;;
2320;SDS011;15376;48.540;9.268;2022-08-19T01:32:32;46.53;;;39.37;;
2320;SDS011;15376;48.540;9.268;2022-08-19T01:34:58;47.40;;;39.33;;
2320;SDS011;15376;48.540;9.268;2022-08-19T01:37:26;42.83;;;38.40;;
2320;SDS011;15376;48.540;9.268;2022-08-19T01:39:52;47.70;;;41.30;;
2320;SDS011;15376;48.540;9.268;2022-08-19T01:42:18;44.87;;;39.70;;
2320;SDS011;15376;48.540;9.268;2022-08-19T01:44:44;37.40;;;33.20;;
2320;SDS011;15376;48.540;9.268;2022-08-19T01:47:10;46.17;;;39.50;;
2320;SDS011;15376;48.540;9.268;2022-08-19T01:49:35;38.27;;;34.13;;
2320;SDS011;15376;48.540;9.268;2022-08-19T01:52:01;49.67;;;40.10;;
2320;SDS011;15376;48.540;9.268;2022-08-19T01:54:27;46.17;;;39.27;;
2320;SDS011;15376;48.540;9.268;2022-08-19T01:57:03;43.70;;;36.47;;
2320;SDS011;15376;48.540;9.268;2022-08-19T01:59:33;47.13;;;38.80;;
2320;SDS011;15376;48.540;9.268;2022-08-19T02:02:01;42.30;;;34.37;;
2320;SDS011;15376;48.540;9.268;2022-08-19T02:04:27;45.27;;;37.63;;
2320;SDS011;15376;48.540;9.268;2022-08-19T02:06:53;43.33;;;37.20;;
2320;SDS011;15376;48.540;9.268;2022-08-19T02:09:18;41.33;;;35.60;;
2320;SDS011;15376;48.540;9.268;2022-08-19T02:11:43;42.13;;;36.87;;
2320;SDS011;15376;48.540;9.268;2022-08-19T02:14:09;43.40;;;37.07;;
2320;SDS011;15376;48.540;9.268;2022-08-19T02:16:35;40.83;;;36.03;;
2320;SDS011;15376;48.540;9.268;2022-08-19T02:19:01;46.73;;;36.90;;
2320;SDS011;15376;48.540;9.268;2022-08-19T02:21:27;37.33;;;33.20;;
2320;SDS011;15376;48.540;9.268;2022-08-19T02:23:54;45.77;;;37.23;;
2320;SDS011;15376;48.540;9.268;2022-08-19T02:26:20;47.60;;;40.50;;
2320;SDS011;15376;48.540;9.268;2022-08-19T02:28:46;42.50;;;38.00;;
2320;SDS011;15376;48.540;9.268;2022-08-19T02:31:15;45.30;;;39.50;;
2320;SDS011;15376;48.540;9.268;2022-08-19T02:33:43;43.63;;;37.87;;
2320;SDS011;15376;48.540;9.268;2022-08-19T02:36:09;41.73;;;37.37;;
2320;SDS011;15376;48.540;9.268;2022-08-19T02:38:36;39.70;;;35.20;;
2320;SDS011;15376;48.540;9.268;2022-08-19T02:41:03;43.67;;;37.03;;
2320;SDS011;15376;48.540;9.268;2022-08-19T02:43:32;47.23;;;40.20;;
2320;SDS011;15376;48.540;9.268;2022-08-19T02:46:01;45.30;;;37.70;;
2320;SDS011;15376;48.540;9.268;2022-08-19T02:48:27;48.43;;;37.90;;
2320;SDS011;15376;48.540;9.268;2022-08-19T02:50:53;44.93;;;37.23;;
2320;SDS011;15376;48.540;9.268;2022-08-19T02:53:22;46.77;;;38.70;;
2320;SDS011;15376;48.540;9.268;2022-08-19T02:55:49;47.43;;;36.63;;
2320;SDS011;15376;48.540;9.268;2022-08-19T02:58:16;42.50;;;36.80;;
2320;SDS011;15376;48.540;9.268;2022-08-19T03:00:43;41.50;;;35.43;;
2320;SDS011;15376;48.540;9.268;2022-08-19T03:03:13;41.97;;;34.10;;
2320;SDS011;15376;48.540;9.268;2022-08-19T03:05:40;37.07;;;32.30;;
2320;SDS011;15376;48.540;9.268;2022-08-19T03:08:06;40.00;;;33.93;;
2320;SDS011;15376;48.540;9.268;2022-08-19T03:10:33;44.37;;;36.27;;
2320;SDS011;15376;48.540;9.268;2022-08-19T03:13:04;44.90;;;33.47;;
2320;SDS011;15376;48.540;9.268;2022-08-19T03:15:29;40.63;;;35.10;;
2320;SDS011;15376;48.540;9.268;2022-08-19T03:17:55;39.80;;;34.40;;
2320;SDS011;15376;48.540;9.268;2022-08-19T03:20:20;41.63;;;36.10;;
2320;SDS011;15376;48.540;9.268;2022-08-19T03:22:46;53.30;;;34.40;;
2320;SDS011;15376;48.540;9.268;2022-08-19T03:25:11;45.57;;;35.37;;
2320;SDS011;15376;48.540;9.268;2022-08-19T03:27:37;41.73;;;33.50;;
2320;SDS011;15376;48.540;9.268;2022-08-19T03:30:02;38.57;;;33.80;;
2320;SDS011;15376;48.540;9.268;2022-08-19T03:32:28;35.60;;;29.00;;
2320;SDS011;15376;48.540;9.268;2022-08-19T03:34:53;35.40;;;30.40;;
2320;SDS011;15376;48.540;9.268;2022-08-19T03:37:18;38.17;;;33.20;;
2320;SDS011;15376;48.540;9.268;2022-08-19T03:39:44;36.93;;;29.30;;
2320;SDS011;15376;48.540;9.268;2022-08-19T03:42:09;41.20;;;33.17;;
2320;SDS011;15376;48.540;9.268;2022-08-19T03:44:35;41.67;;;35.07;;
2320;SDS011;15376;48.540;9.268;2022-08-19T03:47:02;37.53;;;33.30;;
2320;SDS011;15376;48.540;9.268;2022-08-19T03:49:30;41.07;;;34.20;;
2320;SDS011;15376;48.540;9.268;2022-08-19T03:51:58;40.37;;;34.23;;
2320;SDS011;15376;48.540;9.268;2022-08-19T03:54:25;37.27;;;32.07;;
2320;SDS011;15376;48.540;9.268;2022-08-19T03:56:52;38.33;;;34.10;;
2320;SDS011;15376;48.540;9.268;2022-08-19T03:59:23;46.67;;;33.80;;
2320;SDS011;15376;48.540;9.268;2022-08-19T04:01:55;38.23;;;31.63;;
2320;SDS011;15376;48.540;9.268;2022-08-19T04:04:22;36.80;;;32.90;;
2320;SDS011;15376;48.540;9.268;2022-08-19T04:06:48;33.83;;;29.83;;
2320;SDS011;15376;48.540;9.268;2022-08-19T04:09:15;32.70;;;28.73;;
2320;SDS011;15376;48.540;9.268;2022-08-19T04:11:42;36.33;;;31.00;;
2320;SDS011;15376;48.540;9.268;2022-08-19T04:14:13;36.53;;;32.00;;
2320;SDS011;15376;48.540;9.268;2022-08-19T04:16:41;38.90;;;31.77;;
2320;SDS011;15376;48.540;9.268;2022-08-19T04:19:09;33.77;;;30.17;;
2320;SDS011;15376;48.540;9.268;2022-08-19T04:21:35;39.90;;;32.57;;
2320;SDS011;15376;48.540;9.268;2022-08-19T04:24:00;43.43;;;33.80;;
2320;SDS011;15376;48.540;9.268;2022-08-19T04:26:28;46.07;;;34.30;;
2320;SDS011;15376;48.540;9.268;2022-08-19T04:29:02;42.33;;;33.93;;
2320;SDS011;15376;48.540;9.268;2022-08-19T04:31:33;41.90;;;35.03;;
2320;SDS011;15376;48.540;9.268;2022-08-19T04:34:02;43.33;;;35.03;;
2320;SDS011;15376;48.540;9.268;2022-08-19T04:36:31;41.47;;;35.07;;
2320;SDS011;15376;48.540;9.268;2022-08-19T04:38:59;39.60;;;34.27;;
2320;SDS011;15376;48.540;9.268;2022-08-19T04:41:30;36.17;;;30.97;;
2320;SDS011;15376;48.540;9.268;2022-08-19T04:44:13;36.67;;;30.30;;
2320;SDS011;15376;48.540;9.268;2022-08-19T04:46:43;42.77;;;34.20;;
2320;SDS011;15376;48.540;9.268;2022-08-19T04:49:09;42.03;;;35.77;;
2320;SDS011;15376;48.540;9.268;2022-08-19T04:51:35;41.77;;;32.73;;
2320;SDS011;15376;48.540;9.268;2022-08-19T04:54:02;41.83;;;33.07;;
2320;SDS011;15376;48.540;9.268;2022-08-19T04:56:28;43.40;;;34.77;;
2320;SDS011;15376;48.540;9.268;2022-08-19T04:58:54;45.70;;;35.57;;
2320;SDS011;15376;48.540;9.268;2022-08-19T05:01:23;35.77;;;31.70;;
2320;SDS011;15376;48.540;9.268;2022-08-19T05:03:49;39.53;;;33.43;;
2320;SDS011;15376;48.540;9.268;2022-08-19T05:06:17;39.80;;;33.67;;
2320;SDS011;15376;48.540;9.268;2022-08-19T05:08:44;39.90;;;32.33;;
2320;SDS011;15376;48.540;9.268;2022-08-19T05:11:14;44.43;;;34.20;;
2320;SDS011;15376;48.540;9.268;2022-08-19T05:13:42;39.57;;;33.93;;
2320;SDS011;15376;48.540;9.268;2022-08-19T05:16:08;36.03;;;31.57;;
2320;SDS011;15376;48.540;9.268;2022-08-19T05:18:35;33.93;;;28.33;;
2320;SDS011;15376;48.540;9.268;2022-08-19T05:21:19;35.33;;;29.77;;
2320;SDS011;15376;48.540;9.268;2022-08-19T05:24:04;34.27;;;29.70;;
2320;SDS011;15376;48.540;9.268;2022-08-19T05:26:34;39.67;;;33.37;;
2320;SDS011;15376;48.540;9.268;2022-08-19T05:29:03;35.20;;;31.50;;
2320;SDS011;15376;48.540;9.268;2022-08-19T05:31:29;34.57;;;30.27;;
2320;SDS011;15376;48.540;9.268;2022-08-19T05:33:55;41.90;;;33.77;;
2320;SDS011;15376;48.540;9.268;2022-08-19T05:36:23;35.50;;;31.10;;
2320;SDS011;15376;48.540;9.268;2022-08-19T05:38:48;39.47;;;31.70;;
2320;SDS011;15376;48.540;9.268;2022-08-19T05:41:15;32.53;;;29.13;;
2320;SDS011;15376;48.540;9.268;2022-08-19T05:43:42;35.97;;;32.07;;
2320;SDS011;15376;48.540;9.268;2022-08-19T05:46:07;39.77;;;34.13;;
2320;SDS011;15376;48.540;9.268;2022-08-19T05:48:33;41.53;;;33.23;;
2320;SDS011;15376;48.540;9.268;2022-08-19T05:51:06;38.50;;;33.33;;
2320;SDS011;15376;48.540;9.268;2022-08-19T05:53:33;37.80;;;33.10;;
2320;SDS011;15376;48.540;9.268;2022-08-19T05:56:09;36.70;;;32.70;;
2320;SDS011;15376;48.540;9.268;2022-08-19T05:58:37;39.67;;;33.57;;
2320;SDS011;15376;48.540;9.268;2022-08-19T06:01:03;39.40;;;32.33;;
2320;SDS011;15376;48.540;9.268;2022-08-19T06:03:34;34.90;;;30.50;;
2320;SDS011;15376;48.540;9.268;2022-08-19T06:06:02;39.67;;;34.47;;
2320;SDS011;15376;48.540;9.268;2022-08-19T06:08:29;39.40;;;33.47;;
2320;SDS011;15376;48.540;9.268;2022-08-19T06:10:54;36.73;;;32.83;;
2320;SDS011;15376;48.540;9.268;2022-08-19T06:13:21;35.97;;;30.83;;
2320;SDS011;15376;48.540;9.268;2022-08-19T06:15:47;40.30;;;30.60;;
2320;SDS011;15376;48.540;9.268;2022-08-19T06:18:13;34.30;;;30.20;;
2320;SDS011;15376;48.540;9.268;2022-08-19T06:20:39;37.57;;;31.20;;
2320;SDS011;15376;48.540;9.268;2022-08-19T06:23:05;43.50;;;35.90;;
2320;SDS011;15376;48.540;9.268;2022-08-19T06:25:30;41.43;;;35.97;;
2320;SDS011;15376;48.540;9.268;2022-08-19T06:27:55;38.67;;;34.53;;
2320;SDS011;15376;48.540;9.268;2022-08-19T06:30:21;42.03;;;33.87;;
2320;SDS011;15376;48.540;9.268;2022-08-19T06:32:46;38.17;;;31.50;;
2320;SDS011;15376;48.540;9.268;2022-08-19T06:35:12;44.50;;;37.00;;
2320;SDS011;15376;48.540;9.268;2022-08-19T06:37:39;39.93;;;34.67;;
2320;SDS011;15376;48.540;9.268;2022-08-19T06:40:05;44.03;;;31.57;;
2320;SDS011;15376;48.540;9.268;2022-08-19T06:42:32;47.93;;;38.57;;
2320;SDS011;15376;48.540;9.268;2022-08-19T06:44:58;41.73;;;36.30;;
2320;SDS011;15376;48.540;9.268;2022-08-19T06:47:23;41.67;;;35.50;;
2320;SDS011;15376;48.540;9.268;2022-08-19T06:49:48;53.27;;;35.67;;
2320;SDS011;15376;48.540;9.268;2022-08-19T06:52:14;43.17;;;35.10;;
2320;SDS011;15376;48.540;9.268;2022-08-19T06:54:40;44.20;;;36.63;;
2320;SDS011;15376;48.540;9.268;2022-08-19T06:57:07;52.40;;;38.73;;
2320;SDS011;15376;48.540;9.268;2022-08-19T06:59:34;47.70;;;37.07;;
2320;SDS011;15376;48.540;9.268;2022-08-19T07:02:02;46.10;;;36.40;;
2320;SDS011;15376;48.540;9.268;2022-08-19T07:04:31;41.27;;;34.03;;
2320;SDS011;15376;48.540;9.268;2022-08-19T07:06:58;90.37;;;72.67;;
2320;SDS011;15376;48.540;9.268;2022-08-19T07:09:31;44.93;;;38.20;;
2320;SDS011;15376;48.540;9.268;2022-08-19T07:11:56;46.10;;;38.33;;
2320;SDS011;15376;48.540;9.268;2022-08-19T07:14:23;47.73;;;37.30;;
2320;SDS011;15376;48.540;9.268;2022-08-19T07:16:51;47.80;;;40.57;;
2320;SDS011;15376;48.540;9.268;2022-08-19T07:19:20;46.23;;;38.83;;
2320;SDS011;15376;48.540;9.268;2022-08-19T07:21:47;45.87;;;39.43;;
2320;SDS011;15376;48.540;9.268;2022-08-19T07:24:17;45.37;;;36.60;;
2320;SDS011;15376;48.540;9.268;2022-08-19T07:26:44;54.23;;;38.67;;
2320;SDS011;15376;48.540;9.268;2022-08-19T07:29:10;45.47;;;38.60;;
2320;SDS011;15376;48.540;9.268;2022-08-19T07:31:36;47.30;;;40.17;;
2320;SDS011;15376;48.540;9.268;2022-08-19T07:34:06;49.47;;;40.03;;
2320;SDS011;15376;48.540;9.268;2022-08-19T07:36:34;47.70;;;37.00;;
2320;SDS011;15376;48.540;9.268;2022-08-19T07:39:03;46.17;;;38.63;;
2320;SDS011;15376;48.540;9.268;2022-08-19T07:41:34;47.70;;;39.20;;
2320;SDS011;15376;48.540;9.268;2022-08-19T07:44:01;53.53;;;40.37;;
2320;SDS011;15376;48.540;9.268;2022-08-19T07:46:31;49.80;;;40.70;;
2320;SDS011;15376;48.540;9.268;2022-08-19T07:48:58;48.30;;;40.23;;
2320;SDS011;15376;48.540;9.268;2022-08-19T07:51:25;43.77;;;35.87;;
2320;SDS011;15376;48.540;9.268;2022-08-19T07:53:51;44.00;;;36.30;;
2320;SDS011;15376;48.540;9.268;2022-08-19T07:56:18;46.03;;;38.07;;
2320;SDS011;15376;48.540;9.268;2022-08-19T07:58:45;50.17;;;41.57;;
2320;SDS011;15376;48.540;9.268;2022-08-19T08:01:13;45.57;;;37.70;;
2320;SDS011;15376;48.540;9.268;2022-08-19T08:03:41;46.07;;;38.93;;
2320;SDS011;15376;48.540;9.268;2022-08-19T08:06:25;40.30;;;34.40;;
2320;SDS011;15376;48.540;9.268;2022-08-19T08:09:09;45.63;;;37.83;;
2320;SDS011;15376;48.540;9.268;2022-08-19T08:11:56;41.00;;;32.90;;
2320;SDS011;15376;48.540;9.268;2022-08-19T08:14:27;37.90;;;31.93;;
2320;SDS011;15376;48.540;9.268;2022-08-19T08:16:55;44.57;;;39.77;;
2320;SDS011;15376;48.540;9.268;2022-08-19T08:19:22;41.53;;;33.23;;
2320;SDS011;15376;48.540;9.268;2022-08-19T08:21:49;42.83;;;35.70;;
2320;SDS011;15376;48.540;9.268;2022-08-19T08:24:15;42.03;;;36.60;;
2320;SDS011;15376;48.540;9.268;2022-08-19T08:26:41;103.87;;;89.73;;
2320;SDS011;15376;48.540;9.268;2022-08-19T08:29:09;73.23;;;57.13;;
2320;SDS011;15376;48.540;9.268;2022-08-19T08:31:38;46.40;;;36.03;;
2320;SDS011;15376;48.540;9.268;2022-08-19T08:34:05;42.60;;;35.47;;
2320;SDS011;15376;48.540;9.268;2022-08-19T08:36:31;43.53;;;37.43;;
2320;SDS011;15376;48.540;9.268;2022-08-19T08:38:58;52.90;;;42.00;;
2320;SDS011;15376;48.540;9.268;2022-08-19T08:44:23;53.53;;;41.10;;
2320;SDS011;15376;48.540;9.268;2022-08-19T08:47:11;56.77;;;43.00;;
2320;SDS011;15376;48.540;9.268;2022-08-19T08:49:57;53.23;;;43.93;;
2320;SDS011;15376;48.540;9.268;2022-08-19T08:52:36;51.80;;;43.40;;
2320;SDS011;15376;48.540;9.268;2022-08-19T08:55:11;55.60;;;45.80;;
2320;SDS011;15376;48.540;9.268;2022-08-19T09:00:17;53.73;;;43.47;;
2320;SDS011;15376;48.540;9.268;2022-08-19T09:02:46;48.90;;;38.10;;
2320;SDS011;15376;48.540;9.268;2022-08-19T09:05:12;55.37;;;44.07;;
2320;SDS011;15376;48.540;9.268;2022-08-19T09:07:57;55.70;;;42.40;;
2320;SDS011;15376;48.540;9.268;2022-08-19T09:15:34;49.83;;;41.03;;
2320;SDS011;15376;48.540;9.268;2022-08-19T09:18:04;56.00;;;43.77;;
2320;SDS011;15376;48.540;9.268;2022-08-19T09:20:31;50.50;;;40.60;;
2320;SDS011;15376;48.540;9.268;2022-08-19T09:22:56;51.23;;;40.07;;
2320;SDS011;15376;48.540;9.268;2022-08-19T09:25:23;53.70;;;41.13;;
2320;SDS011;15376;48.540;9.268;2022-08-19T09:27:49;54.60;;;43.70;;
2320;SDS011;15376;48.540;9.268;2022-08-19T09:30:18;52.37;;;42.63;;
2320;SDS011;15376;48.540;9.268;2022-08-19T09:32:46;55.60;;;43.97;;
2320;SDS011;15376;48.540;9.268;2022-08-19T09:35:13;60.80;;;43.30;;
2320;SDS011;15376;48.540;9.268;2022-08-19T09:37:40;55.00;;;42.47;;
2320;SDS011;15376;48.540;9.268;2022-08-19T09:40:07;51.67;;;41.70;;
2320;SDS011;15376;48.540;9.268;2022-08-19T09:42:33;48.77;;;39.17;;
2320;SDS011;15376;48.540;9.268;2022-08-19T09:44:59;53.80;;;42.30;;
2320;SDS011;15376;48.540;9.268;2022-08-19T09:47:24;52.57;;;41.67;;
2320;SDS011;15376;48.540;9.268;2022-08-19T09:49:50;47.77;;;40.73;;
2320;SDS011;15376;48.540;9.268;2022-08-19T09:52:15;59.90;;;44.20;;
2320;SDS011;15376;48.540;9.268;2022-08-19T09:54:41;56.67;;;46.13;;
2320;SDS011;15376;48.540;9.268;2022-08-19T09:57:07;52.67;;;41.10;;
2320;SDS011;15376;48.540;9.268;2022-08-19T09:59:32;52.30;;;43.70;;
2320;SDS011;15376;48.540;9.268;2022-08-19T10:01:58;51.40;;;43.70;;
2320;SDS011;15376;48.540;9.268;2022-08-19T10:04:24;50.00;;;39.87;;
2320;SDS011;15376;48.540;9.268;2022-08-19T10:07:09;51.43;;;43.00;;
2320;SDS011;15376;48.540;9.268;2022-08-19T10:09:35;46.63;;;40.47;;
2320;SDS011;15376;48.540;9.268;2022-08-19T10:12:02;49.30;;;39.80;;
2320;SDS011;15376;48.540;9.268;2022-08-19T10:14:29;47.63;;;39.30;;
2320;SDS011;15376;48.540;9.268;2022-08-19T10:16:55;47.20;;;40.23;;
2320;SDS011;15376;48.540;9.268;2022-08-19T10:19:21;46.17;;;37.70;;
2320;SDS011;15376;48.540;9.268;2022-08-19T10:21:46;49.10;;;40.90;;
2320;SDS011;15376;48.540;9.268;2022-08-19T10:24:12;48.03;;;40.17;;
2320;SDS011;15376;48.540;9.268;2022-08-19T10:26:38;47.43;;;40.77;;
2320;SDS011;15376;48.540;9.268;2022-08-19T10:29:06;51.40;;;40.43;;
2320;SDS011;15376;48.540;9.268;2022-08-19T10:31:33;53.80;;;42.17;;
2320;SDS011;15376;48.540;9.268;2022-08-19T10:33:59;46.57;;;38.50;;
2320;SDS011;15376;48.540;9.268;2022-08-19T10:36:27;46.10;;;38.10;;
2320;SDS011;15376;48.540;9.268;2022-08-19T10:38:54;56.37;;;44.80;;
2320;SDS011;15376;48.540;9.268;2022-08-19T10:41:24;52.20;;;42.80;;
2320;SDS011;15376;48.540;9.268;2022-08-19T10:43:52;46.80;;;39.60;;
2320;SDS011;15376;48.540;9.268;2022-08-19T10:46:19;43.97;;;37.57;;
2320;SDS011;15376;48.540;9.268;2022-08-19T10:48:46;56.67;;;42.90;;
2320;SDS011;15376;48.540;9.268;2022-08-19T10:51:12;58.23;;;43.33;;
2320;SDS011;15376;48.540;9.268;2022-08-19T10:53:56;53.87;;;43.07;;
2320;SDS011;15376;48.540;9.268;2022-08-19T10:56:22;51.53;;;43.30;;
2320;SDS011;15376;48.540;9.268;2022-08-19T10:59:06;55.50;;;42.60;;
2320;SDS011;15376;48.540;9.268;2022-08-19T11:01:31;55.93;;;44.00;;
2320;SDS011;15376;48.540;9.268;2022-08-19T11:03:59;58.00;;;44.20;;
2320;SDS011;15376;48.540;9.268;2022-08-19T11:06:25;49.67;;;43.13;;
2320;SDS011;15376;48.540;9.268;2022-08-19T11:08:52;53.50;;;41.03;;
2320;SDS011;15376;48.540;9.268;2022-08-19T11:11:21;59.30;;;46.00;;
2320;SDS011;15376;48.540;9.268;2022-08-19T11:13:47;65.40;;;47.33;;
2320;SDS011;15376;48.540;9.268;2022-08-19T11:16:18;63.93;;;47.00;;
2320;SDS011;15376;48.540;9.268;2022-08-19T11:18:47;59.80;;;46.10;;
2320;SDS011;15376;48.540;9.268;2022-08-19T11:21:18;56.50;;;44.10;;
2320;SDS011;15376;48.540;9.268;2022-08-19T11:23:49;52.83;;;41.13;;
2320;SDS011;15376;48.540;9.268;2022-08-19T11:26:17;49.73;;;41.70;;
2320;SDS011;15376;48.540;9.268;2022-08-19T11:28:43;55.67;;;42.73;;
2320;SDS011;15376;48.540;9.268;2022-08-19T11:31:19;54.40;;;43.70;;
2320;SDS011;15376;48.540;9.268;2022-08-19T11:33:46;53.00;;;44.30;;
2320;SDS011;15376;48.540;9.268;2022-08-19T11:36:12;59.70;;;44.40;;
2320;SDS011;15376;48.540;9.268;2022-08-19T11:38:38;56.00;;;43.67;;
2320;SDS011;15376;48.540;9.268;2022-08-19T11:41:05;54.60;;;43.33;;
2320;SDS011;15376;48.540;9.268;2022-08-19T11:43:32;56.03;;;44.77;;
2320;SDS011;15376;48.540;9.268;2022-08-19T11:45:59;56.53;;;43.40;;
2320;SDS011;15376;48.540;9.268;2022-08-19T11:48:28;48.37;;;39.83;;
2320;SDS011;15376;48.540;9.268;2022-08-19T11:50:53;56.60;;;46.27;;
2320;SDS011;15376;48.540;9.268;2022-08-19T11:53:21;53.93;;;43.30;;
2320;SDS011;15376;48.540;9.268;2022-08-19T11:55:47;52.30;;;42.50;;
2320;SDS011;15376;48.540;9.268;2022-08-19T11:58:14;46.37;;;39.20;;
2320;SDS011;15376;48.540;9.268;2022-08-19T12:00:41;54.20;;;41.70;;
2320;SDS011;15376;48.540;9.268;2022-08-19T12:03:09;52.07;;;41.60;;
2320;SDS011;15376;48.540;9.268;2022-08-19T12:05:37;52.47;;;43.20;;
2320;SDS011;15376;48.540;9.268;2022-08-19T12:08:03;61.90;;;45.17;;
2320;SDS011;15376;48.540;9.268;2022-08-19T12:10:29;53.67;;;42.97;;
2320;SDS011;15376;48.540;9.268;2022-08-19T12:12:54;50.93;;;41.37;;
2320;SDS011;15376;48.540;9.268;2022-08-19T12:15:20;49.13;;;40.87;;
2320;SDS011;15376;48.540;9.268;2022-08-19T12:17:45;44.60;;;39.70;;
2320;SDS011;15376;48.540;9.268;2022-08-19T12:20:11;45.80;;;38.93;;
2320;SDS011;15376;48.540;9.268;2022-08-19T12:22:40;43.93;;;37.20;;
2320;SDS011;15376;48.540;9.268;2022-08-19T12:25:06;48.17;;;37.57;;
2320;SDS011;15376;48.540;9.268;2022-08-19T12:27:33;48.40;;;40.03;;
2320;SDS011;15376;48.540;9.268;2022-08-19T12:30:00;45.13;;;36.67;;
2320;SDS011;15376;48.540;9.268;2022-08-19T12:32:27;42.73;;;36.77;;
2320;SDS011;15376;48.540;9.268;2022-08-19T12:34:52;40.57;;;36.23;;
2320;SDS011;15376;48.540;9.268;2022-08-19T12:37:18;37.60;;;33.00;;
2320;SDS011;15376;48.540;9.268;2022-08-19T12:39:43;42.57;;;37.90;;
2320;SDS011;15376;48.540;9.268;2022-08-19T12:42:12;41.77;;;37.53;;
2320;SDS011;15376;48.540;9.268;2022-08-19T12:44:40;47.10;;;38.10;;
2320;SDS011;15376;48.540;9.268;2022-08-19T12:47:07;43.03;;;36.67;;
2320;SDS011;15376;48.540;9.268;2022-08-19T12:49:34;42.40;;;37.80;;
2320;SDS011;15376;48.540;9.268;2022-08-19T12:52:02;43.67;;;39.07;;
2320;SDS011;15376;48.540;9.268;2022-08-19T12:54:28;43.67;;;38.13;;
2320;SDS011;15376;48.540;9.268;2022-08-19T12:56:55;45.53;;;39.97;;
2320;SDS011;15376;48.540;9.268;2022-08-19T12:59:21;48.30;;;41.00;;
2320;SDS011;15376;48.540;9.268;2022-08-19T13:01:47;46.87;;;41.77;;
2320;SDS011;15376;48.540;9.268;2022-08-19T13:04:12;46.70;;;41.60;;
2320;SDS011;15376;48.540;9.268;2022-08-19T13:06:37;42.03;;;36.43;;
2320;SDS011;15376;48.540;9.268;2022-08-19T13:09:03;43.07;;;38.30;;
2320;SDS011;15376;48.540;9.268;2022-08-19T13:11:30;40.73;;;36.00;;
2320;SDS011;15376;48.540;9.268;2022-08-19T13:14:00;46.30;;;37.67;;
2320;SDS011;15376;48.540;9.268;2022-08-19T13:16:27;54.30;;;40.57;;
2320;SDS011;15376;48.540;9.268;2022-08-19T13:18:54;47.27;;;40.70;;
2320;SDS011;15376;48.540;9.268;2022-08-19T13:21:21;44.30;;;39.47;;
2320;SDS011;15376;48.540;9.268;2022-08-19T13:23:48;44.67;;;39.80;;
2320;SDS011;15376;48.540;9.268;2022-08-19T13:26:13;47.27;;;40.87;;
2320;SDS011;15376;48.540;9.268;2022-08-19T13:28:39;50.23;;;42.10;;
2320;SDS011;15376;48.540;9.268;2022-08-19T13:31:25;43.43;;;38.73;;
2320;SDS011;15376;48.540;9.268;2022-08-19T13:34:11;44.17;;;37.37;;
2320;SDS011;15376;48.540;9.268;2022-08-19T13:36:37;47.57;;;40.53;;
2320;SDS011;15376;48.540;9.268;2022-08-19T13:39:03;44.17;;;39.27;;
2320;SDS011;15376;48.540;9.268;2022-08-19T13:41:29;48.83;;;40.17;;
2320;SDS011;15376;48.540;9.268;2022-08-19T13:43:55;51.10;;;40.40;;
2320;SDS011;15376;48.540;9.268;2022-08-19T13:46:21;49.80;;;40.70;;
2320;SDS011;15376;48.540;9.268;2022-08-19T13:48:47;51.83;;;41.93;;
2320;SDS011;15376;48.540;9.268;2022-08-19T13:51:13;57.23;;;46.10;;
2320;SDS011;15376;48.540;9.268;2022-08-19T13:53:41;53.97;;;45.50;;
2320;SDS011;15376;48.540;9.268;2022-08-19T13:56:09;52.87;;;43.60;;
2320;SDS011;15376;48.540;9.268;2022-08-19T13:58:36;47.27;;;42.13;;
2320;SDS011;15376;48.540;9.268;2022-08-19T14:01:03;44.20;;;39.40;;
2320;SDS011;15376;48.540;9.268;2022-08-19T14:03:31;44.90;;;40.13;;
2320;SDS011;15376;48.540;9.268;2022-08-19T14:05:57;42.63;;;37.30;;
2320;SDS011;15376;48.540;9.268;2022-08-19T14:08:24;54.00;;;41.10;;
2320;SDS011;15376;48.540;9.268;2022-08-19T14:10:50;43.57;;;37.80;;
2320;SDS011;15376;48.540;9.268;2022-08-19T14:13:17;41.90;;;36.53;;
2320;SDS011;15376;48.540;9.268;2022-08-19T14:15:45;42.07;;;37.53;;
2320;SDS011;15376;48.540;9.268;2022-08-19T14:18:12;43.60;;;37.60;;
2320;SDS011;15376;48.540;9.268;2022-08-19T14:20:38;47.40;;;40.80;;
2320;SDS011;15376;48.540;9.268;2022-08-19T14:23:03;47.30;;;40.60;;
2320;SDS011;15376;48.540;9.268;2022-08-19T14:25:31;45.90;;;40.20;;
2320;SDS011;15376;48.540;9.268;2022-08-19T14:27:57;53.87;;;41.13;;
2320;SDS011;15376;48.540;9.268;2022-08-19T14:30:27;46.30;;;39.77;;
2320;SDS011;15376;48.540;9.268;2022-08-19T14:32:55;51.23;;;39.90;;
2320;SDS011;15376;48.540;9.268;2022-08-19T14:35:23;45.17;;;40.37;;
2320;SDS011;15376;48.540;9.268;2022-08-19T14:37:48;48.73;;;40.23;;
2320;SDS011;15376;48.540;9.268;2022-08-19T14:40:15;44.93;;;39.43;;
2320;SDS011;15376;48.540;9.268;2022-08-19T14:42:45;46.87;;;38.10;;
2320;SDS011;15376;48.540;9.268;2022-08-19T14:45:11;43.53;;;38.87;;
2320;SDS011;15376;48.540;9.268;2022-08-19T14:47:37;43.67;;;39.00;;